Terminal Aerodrome Forecast
Issued by NWS Caribou, ME

Home | Current Version | Previous Version | Text Only | Print | Product List | Glossary On
Versions: 1 2 3 4 5 6 7 8 9 10 11 12 13 14 15
000
FTUS41 KCAR 031726
TAFBGR
TAF
KBGR 031726Z 0318/0418 18015G25KT P6SM FEW250
     FM040000 17012G24KT P6SM VCTS BKN035CB
     FM040600 VRB03KT 2SM BR BKN003
     FM041200 20004KT P6SM SCT003 BKN090
     FM041400 19005KT P6SM BKN250=

USA.gov is the U.S. government's official web portal to all federal, state and local government web resources and services.